Advertisement

Advertisement

Advertisement

240x30push.png
#EstáEnTusManos Quiero recibir notificaciones con las noticias más importantes de Colombia y el mundo.
Activar
Ahora no

Advertisement

Aeropuerto Enrique Olaya Herrera normaliza la operación aérea

180315_olaya_herrera_aeropuerto.jpg

Después de las 11:00 a.m.  el aeropuerto Enrique Olaya Herrera comenzó a normalizar sus operaciones, que se vieron afectadas por el cielo nublado y opaco que cobijó a la ciudad de Medellín, en la mañana del miércoles.
Aunque aún hay muchos vuelos con retrasos y demoras, ya comenzó a despejarse esta terminal aérea.
Así fue el cierre:
Mediante este mensaje de Twitter,  la cuenta de Tráfico Aéreo de Colombia anunció el cierre:

08:00 CERRADO Aeropuerto Enrique Olaya Herrera de Medellín SKMD 181200Z 00000KT 5000 HZ BKN015 SCT080 20/17 A3014 RMK AD BLW MNM MET

Sin embargo, voceros del lugar informaron que 580 pasajeros se vieron afectados para viajar desde Medellín a otros lugares del país y 380 pasajeros tuvieron problemas para llegar a este aeropuerto.
Un total de 21 vuelos estuvieron demorados, cuatro fueron desviados al aeropuerto José María Córdova de Rionegro, que opera con normalidad y dos fueron unificados.

Convierta a Noticias Caracol en su fuente de noticias Convierta a Noticias Caracol en su fuente de noticias